Time;durP1;ratioP1;P1;durP2;ratioP2;P2;SDS_P1;SDS_P2;PMS_P1;PMS_P2;Temp;Humidity;BMP_temperature;BMP_pressure;BME280_temperature;BME280_humidity;BME280_pressure;Samples;Min_cycle;Max_cycle;Signal;HPM_P1;HPM_P2
2022/05/01 00:01:25;;;;;;;10.43;7.12;;;;;;;12.03;67.60;100847.05;1653661;85;21080;-64
2022/05/01 00:03:52;;;;;;;11.03;7.12;;;;;;;11.94;68.00;100851.55;1653979;86;21332;-60
2022/05/01 00:06:19;;;;;;;12.98;8.43;;;;;;;11.93;68.55;100852.05;1656733;86;21340;-59
2022/05/01 00:08:46;;;;;;;9.53;5.75;;;;;;;11.87;68.88;100854.05;1657201;85;21651;-56
2022/05/01 00:11:15;;;;;;;9.65;6.22;;;;;;;11.87;70.00;100859.27;1657219;85;21016;-59
2022/05/01 00:13:45;;;;;;;10.38;5.85;;;;;;;11.93;70.11;100859.89;1656305;86;21072;-65
2022/05/01 00:16:14;;;;;;;9.13;5.12;;;;;;;11.82;70.97;100862.89;1656769;86;22061;-58
2022/05/01 00:18:42;;;;;;;10.53;6.72;;;;;;;11.92;68.58;100856.94;1646258;86;21153;-60
2022/05/01 00:21:09;;;;;;;10.25;5.72;;;;;;;11.87;67.22;100871.03;1656490;85;21092;-67
2022/05/01 00:23:37;;;;;;;9.03;5.25;;;;;;;11.87;66.81;100872.34;1656401;86;21195;-60
2022/05/01 00:26:06;;;;;;;12.18;5.37;;;;;;;11.97;66.47;100871.27;1655817;86;21183;-59
2022/05/01 00:28:35;;;;;;;10.08;5.30;;;;;;;11.97;66.51;100870.80;1656733;85;21169;-58
2022/05/01 00:31:07;;;;;;;7.90;5.40;;;;;;;11.91;65.35;100872.30;1656713;85;21009;-65
2022/05/01 00:36:27;;;;;;;10.03;6.00;;;;;;;11.62;64.19;100874.78;1656734;86;21076;-59
2022/05/01 00:39:02;;;;;;;11.40;6.35;;;;;;;11.66;64.05;100877.36;1657295;86;21017;-67
2022/05/01 00:41:33;;;;;;;11.63;6.15;;;;;;;11.59;64.25;100872.05;1657017;86;21245;-58
2022/05/01 00:44:12;;;;;;;10.38;5.25;;;;;;;11.48;65.79;100871.61;1656919;85;25124;-60
2022/05/01 00:46:43;;;;;;;12.70;8.18;;;;;;;11.37;66.94;100869.74;1656631;86;21706;-60
2022/05/01 00:49:16;;;;;;;11.95;6.95;;;;;;;11.31;69.29;100874.34;1656334;86;21513;-59
2022/05/01 00:51:50;;;;;;;11.55;7.40;;;;;;;11.63;68.32;100865.95;1646614;86;21072;-60
2022/05/01 00:54:18;;;;;;;11.60;7.28;;;;;;;11.73;67.17;100867.84;1656636;86;21154;-67
2022/05/01 00:56:50;;;;;;;11.40;7.50;;;;;;;11.36;70.02;100866.79;1656126;85;21409;-58
2022/05/01 00:59:17;;;;;;;13.20;7.50;;;;;;;11.57;68.60;100867.98;1657043;86;21296;-60
2022/05/01 01:01:45;;;;;;;11.88;7.75;;;;;;;11.49;69.37;100867.55;1657355;86;21033;-58
2022/05/01 01:04:13;;;;;;;9.93;7.12;;;;;;;11.55;69.85;100865.52;1655628;86;21522;-67
2022/05/01 01:06:41;;;;;;;13.05;6.70;;;;;;;11.55;70.60;100871.23;1653072;86;22343;-60
2022/05/01 01:09:09;;;;;;;9.28;6.72;;;;;;;11.51;71.49;100869.47;1653944;85;22526;-58
2022/05/01 01:11:38;;;;;;;10.95;7.08;;;;;;;11.39;74.11;100867.75;1654154;86;21116;-58
2022/05/01 01:14:05;;;;;;;9.50;6.53;;;;;;;11.31;75.10;100863.90;1653686;86;21069;-59
2022/05/01 01:16:34;;;;;;;9.03;6.22;;;;;;;11.39;75.48;100861.23;1653762;86;21140;-59
2022/05/01 01:19:06;;;;;;;12.05;7.12;;;;;;;11.37;75.92;100872.35;1654433;86;21746;-57
2022/05/01 01:21:34;;;;;;;11.73;7.22;;;;;;;11.32;76.63;100878.56;1654439;85;21076;-59
2022/05/01 01:24:05;;;;;;;11.08;6.67;;;;;;;11.37;76.51;100867.13;1654784;85;21073;-60
2022/05/01 01:26:34;;;;;;;10.18;6.17;;;;;;;11.47;74.20;100862.16;1653959;85;21076;-56
2022/05/01 01:29:01;;;;;;;10.58;6.40;;;;;;;11.18;74.81;100868.88;1654241;85;21362;-59
2022/05/01 01:31:40;;;;;;;10.53;7.00;;;;;;;11.28;73.59;100860.81;1707625;82;21179;-59
2022/05/01 01:34:11;;;;;;;9.53;6.45;;;;;;;11.17;72.85;100864.63;1707161;83;21055;-67
2022/05/01 01:36:39;;;;;;;12.15;6.35;;;;;;;11.20;73.10;100862.98;1707413;83;23228;-59
2022/05/01 01:39:06;;;;;;;11.85;6.42;;;;;;;10.97;75.16;100870.77;1707490;82;21086;-59
2022/05/01 01:41:33;;;;;;;11.63;6.92;;;;;;;11.01;75.57;100873.85;1707366;82;21544;-60
2022/05/01 01:44:00;;;;;;;11.38;6.90;;;;;;;10.87;76.56;100873.60;1706869;82;21185;-67
2022/05/01 01:46:27;;;;;;;14.47;8.05;;;;;;;10.83;78.55;100878.80;1706547;83;21074;-60
2022/05/01 01:48:55;;;;;;;11.03;7.10;;;;;;;10.78;80.04;100885.03;1706544;82;21499;-59
2022/05/01 01:51:22;;;;;;;10.95;6.37;;;;;;;10.83;80.41;100882.72;1707395;82;21062;-60
2022/05/01 01:53:52;;;;;;;9.95;6.70;;;;;;;10.80;81.63;100882.27;1706496;82;21106;-57
2022/05/01 01:56:18;;;;;;;14.68;7.97;;;;;;;10.81;83.05;100886.00;1707421;82;21130;-67
2022/05/01 01:58:46;;;;;;;13.70;7.80;;;;;;;10.98;82.05;100884.63;1706980;82;21529;-57
2022/05/01 02:01:13;;;;;;;10.40;7.45;;;;;;;10.89;83.33;100891.67;1707018;82;21454;-60
2022/05/01 02:03:40;;;;;;;11.10;6.85;;;;;;;10.80;84.12;100896.12;1694806;82;21572;-60
2022/05/01 02:06:09;;;;;;;11.15;7.62;;;;;;;10.89;84.50;100900.80;1702045;83;21519;-58
2022/05/01 02:08:38;;;;;;;9.70;6.70;;;;;;;10.84;84.57;100898.71;1700523;84;21043;-59
2022/05/01 02:11:06;;;;;;;12.45;8.53;;;;;;;11.01;82.40;100905.16;1702147;82;21359;-60
2022/05/01 02:13:34;;;;;;;12.70;8.28;;;;;;;11.00;82.74;100909.56;1702152;84;21003;-57
2022/05/01 02:16:02;;;;;;;14.13;8.75;;;;;;;10.89;84.38;100916.45;1701685;82;20960;-58
2022/05/01 02:18:29;;;;;;;12.70;7.47;;;;;;;11.11;83.37;100913.11;1701748;82;21003;-59
2022/05/01 02:23:42;;;;;;;13.70;8.63;;;;;;;11.23;79.62;100912.72;1701647;82;21019;-63
2022/05/01 02:26:10;;;;;;;13.65;8.10;;;;;;;11.20;78.54;100915.98;1701617;82;21383;-59
2022/05/01 02:28:37;;;;;;;12.98;8.28;;;;;;;11.24;79.79;100922.98;1701980;84;21551;-57
2022/05/01 02:31:04;;;;;;;11.33;8.48;;;;;;;11.43;81.88;100930.88;1702230;82;21075;-58
2022/05/01 02:33:31;;;;;;;14.30;6.92;;;;;;;11.60;81.36;100927.69;1702388;84;21278;-57
2022/05/01 02:35:58;;;;;;;13.32;7.72;;;;;;;12.65;71.56;100929.09;1700976;82;21001;-57
2022/05/01 02:38:25;;;;;;;11.30;7.15;;;;;;;12.70;70.06;100938.54;1701288;82;20987;-58
2022/05/01 02:40:52;;;;;;;12.35;7.10;;;;;;;12.73;69.98;100942.58;1702342;82;21126;-57
2022/05/01 02:43:20;;;;;;;10.25;6.55;;;;;;;12.81;71.84;100940.70;1701776;82;21067;-59
2022/05/01 02:45:47;;;;;;;11.08;6.75;;;;;;;13.20;70.03;100943.51;1700377;82;21317;-57
2022/05/01 02:48:14;;;;;;;12.45;7.25;;;;;;;13.38;68.48;100951.81;1701680;84;21110;-58
2022/05/01 02:50:42;;;;;;;9.00;6.53;;;;;;;13.38;68.54;100945.77;1691354;84;21347;-57
2022/05/01 02:53:09;;;;;;;12.45;7.97;;;;;;;13.60;68.61;100953.97;1702153;82;21042;-57
2022/05/01 02:55:38;;;;;;;12.05;6.00;;;;;;;13.81;68.23;100954.47;1700501;82;21043;-58
2022/05/01 02:58:07;;;;;;;12.13;7.05;;;;;;;13.94;67.04;100953.80;1702451;82;21183;-57
2022/05/01 03:00:34;;;;;;;10.15;6.30;;;;;;;14.34;67.02;100950.99;1701022;82;21084;-58
2022/05/01 03:03:03;;;;;;;11.03;7.10;;;;;;;14.79;66.37;100954.14;1701993;82;21062;-57
2022/05/01 03:05:30;;;;;;;13.78;7.10;;;;;;;15.09;63.28;100951.27;1702105;82;20944;-66
2022/05/01 03:07:57;;;;;;;9.10;5.83;;;;;;;15.29;62.00;100945.58;1702917;82;21091;-57
2022/05/01 03:10:25;;;;;;;11.15;6.60;;;;;;;15.58;60.47;100951.53;1702918;82;21133;-58
2022/05/01 03:12:52;;;;;;;9.53;6.60;;;;;;;15.85;58.03;100955.05;1702849;82;21400;-57
2022/05/01 03:15:24;;;;;;;10.85;6.20;;;;;;;16.15;56.05;100950.20;1702888;84;21102;-57
2022/05/01 03:23:22;;;;;;;8.88;6.40;;;;;;;17.34;54.49;100948.31;1702180;82;21147;-59
2022/05/01 03:25:49;;;;;;;11.12;6.90;;;;;;;18.66;50.96;100957.88;1702647;84;21293;-64
2022/05/01 03:28:16;;;;;;;9.90;6.77;;;;;;;19.52;47.37;100946.81;1702875;82;21093;-56
2022/05/01 03:30:45;;;;;;;9.60;6.03;;;;;;;20.24;45.18;100943.28;1703007;82;21009;-56
2022/05/01 03:33:12;;;;;;;9.10;6.37;;;;;;;21.57;41.38;100951.59;1702962;84;21702;-57
2022/05/01 03:35:40;;;;;;;9.73;6.90;;;;;;;21.57;41.38;100951.59;1702936;82;21535;-63
2022/05/01 03:38:07;;;;;;;10.70;6.23;;;;;;;22.34;38.84;100946.18;1702695;82;21640;-56
2022/05/01 03:40:37;;;;;;;9.37;6.70;;;;;;;22.48;37.84;100948.78;1703315;82;21861;-55
2022/05/01 03:43:05;;;;;;;13.60;10.07;;;;;;;22.36;37.96;100949.41;1703282;82;21065;-55
2022/05/01 03:45:32;;;;;;;10.53;8.27;;;;;;;23.46;36.35;100948.87;1703081;82;21580;-57
2022/05/01 03:48:00;;;;;;;11.67;7.87;;;;;;;24.28;34.85;100952.19;1702198;84;22392;-56
2022/05/01 03:50:28;;;;;;;10.43;8.67;;;;;;;24.97;33.09;100948.57;1703066;82;21421;-55
2022/05/01 03:52:55;;;;;;;10.70;8.63;;;;;;;25.26;32.21;100954.80;1703070;82;21083;-54
2022/05/01 03:55:23;;;;;;;18.00;14.57;;;;;;;25.31;31.64;100955.63;1703022;84;20995;-55
2022/05/01 03:57:50;;;;;;;23.20;18.73;;;;;;;25.42;31.25;100955.91;1702048;82;21078;-56
2022/05/01 04:00:20;;;;;;;23.47;18.97;;;;;;;25.54;31.14;100952.98;1702665;82;21653;-55
2022/05/01 04:02:47;;;;;;;22.37;18.87;;;;;;;25.59;31.06;100952.18;1703065;82;21894;-57
2022/05/01 04:05:14;;;;;;;21.30;19.03;;;;;;;25.30;30.44;100955.33;1702969;84;21094;-56
2022/05/01 04:07:42;;;;;;;22.47;17.80;;;;;;;24.87;30.66;100956.53;1692143;84;21612;-56
2022/05/01 04:10:09;;;;;;;20.87;17.10;;;;;;;24.96;30.51;100953.11;1702106;84;21079;-56
2022/05/01 04:12:39;;;;;;;24.83;18.87;;;;;;;25.06;29.98;100958.19;1702388;82;21327;-55
2022/05/01 04:15:09;;;;;;;22.27;18.70;;;;;;;24.83;29.96;100961.58;1702095;84;20948;-55
2022/05/01 04:17:40;;;;;;;24.07;19.00;;;;;;;24.67;30.02;100957.25;1702622;84;21003;-55
2022/05/01 04:20:15;;;;;;;22.67;18.48;;;;;;;24.68;30.28;100954.84;1702192;82;28386;-59
2022/05/01 04:22:46;;;;;;;23.10;19.03;;;;;;;24.83;30.80;100955.45;1702761;82;21054;-58
2022/05/01 04:25:21;;;;;;;22.07;19.52;;;;;;;25.42;30.10;100956.42;1702225;82;21154;-55
2022/05/01 04:27:55;;;;;;;24.37;19.83;;;;;;;25.91;29.42;100953.27;1692263;82;21011;-64
2022/05/01 04:30:24;;;;;;;22.70;18.60;;;;;;;26.27;28.66;100946.01;1683680;84;21471;-55
2022/05/01 04:32:59;;;;;;;25.43;20.33;;;;;;;26.62;28.44;100952.34;1702871;84;20971;-55
2022/05/01 04:35:37;;;;;;;24.27;19.33;;;;;;;26.79;28.04;100950.16;1700712;82;21079;-60
2022/05/01 04:38:07;;;;;;;22.40;18.63;;;;;;;27.04;27.88;100953.22;1702362;82;21252;-55
2022/05/01 04:40:42;;;;;;;23.22;19.02;;;;;;;27.61;27.03;100946.98;1702629;82;20991;-57
2022/05/01 04:43:14;;;;;;;22.73;18.53;;;;;;;27.91;26.66;100953.20;1701580;82;20940;-55
2022/05/01 04:45:43;;;;;;;22.53;19.17;;;;;;;28.42;25.75;100946.02;1691185;84;20991;-63
2022/05/01 04:48:11;;;;;;;22.73;18.47;;;;;;;28.69;25.18;100951.59;1702809;82;21883;-57
2022/05/01 04:50:39;;;;;;;21.13;17.27;;;;;;;29.04;24.80;100948.20;1701745;82;21180;-63
2022/05/01 04:53:07;;;;;;;20.93;17.50;;;;;;;29.22;24.26;100953.33;1701647;84;21027;-58
2022/05/01 04:55:34;;;;;;;20.47;16.27;;;;;;;28.86;24.33;100953.78;1702174;82;21035;-57
2022/05/01 04:58:02;;;;;;;20.50;17.13;;;;;;;28.92;24.16;100947.81;1701692;82;21027;-55
2022/05/01 05:00:30;;;;;;;18.17;14.97;;;;;;;28.99;24.22;100942.92;1702116;82;21674;-56
2022/05/01 05:02:57;;;;;;;20.00;16.30;;;;;;;28.93;24.12;100945.37;1702020;84;21161;-59
2022/05/01 05:05:26;;;;;;;20.47;15.27;;;;;;;28.76;24.55;100942.65;1702563;84;21577;-55
2022/05/01 05:07:53;;;;;;;17.73;14.50;;;;;;;29.39;24.06;100927.28;1702793;82;21118;-56
2022/05/01 05:10:21;;;;;;;16.43;13.33;;;;;;;29.54;24.04;100931.06;1703155;84;21172;-55
2022/05/01 05:12:48;;;;;;;16.20;13.10;;;;;;;29.71;23.47;100932.70;1702509;83;21058;-56
2022/05/01 05:15:20;;;;;;;16.40;14.10;;;;;;;29.56;23.53;100943.67;1702459;82;21436;-57
2022/05/01 05:17:46;;;;;;;15.07;12.90;;;;;;;29.44;23.55;100942.78;1703011;84;21008;-56
2022/05/01 05:20:14;;;;;;;14.00;12.50;;;;;;;29.45;23.39;100948.41;1702580;83;21103;-55
2022/05/01 05:22:42;;;;;;;15.53;13.10;;;;;;;29.55;23.44;100949.59;1691939;82;21087;-61
2022/05/01 05:25:11;;;;;;;18.27;13.30;;;;;;;29.89;23.14;100944.49;1702218;84;21150;-60
2022/05/01 05:27:38;;;;;;;16.37;12.43;;;;;;;30.37;23.04;100943.35;1702973;83;21181;-56
2022/05/01 05:30:08;;;;;;;14.78;11.15;;;;;;;30.92;21.96;100947.36;1702611;82;20951;-65
2022/05/01 05:32:35;;;;;;;12.37;9.93;;;;;;;30.91;21.43;100944.41;1702730;82;21922;-59
2022/05/01 05:35:05;;;;;;;15.38;11.73;;;;;;;30.95;21.16;100946.73;1702342;82;21018;-57
2022/05/01 05:37:32;;;;;;;15.10;10.23;;;;;;;31.07;21.33;100942.98;1702541;82;21066;-55
2022/05/01 05:39:59;;;;;;;13.60;10.72;;;;;;;31.23;20.99;100946.91;1703105;82;21612;-56
2022/05/01 05:42:26;;;;;;;14.13;11.90;;;;;;;31.46;21.03;100945.59;1703186;82;20940;-57
2022/05/01 05:44:53;;;;;;;12.23;10.15;;;;;;;31.56;20.93;100952.09;1702028;82;21102;-59
2022/05/01 05:47:21;;;;;;;13.48;11.10;;;;;;;31.65;20.23;100946.75;1702833;84;22090;-57
2022/05/01 05:49:48;;;;;;;11.95;9.78;;;;;;;31.49;20.47;100950.38;1703108;82;21004;-57
2022/05/01 05:52:16;;;;;;;13.30;9.65;;;;;;;31.62;20.23;100942.77;1702102;82;21726;-58
2022/05/01 05:54:43;;;;;;;14.47;11.38;;;;;;;31.64;20.35;100943.82;1702165;82;21925;-60
2022/05/01 05:57:10;;;;;;;14.87;11.53;;;;;;;31.77;20.09;100940.78;1702298;82;21352;-56
2022/05/01 05:59:38;;;;;;;16.20;12.23;;;;;;;30.37;20.89;100943.35;1702617;82;22170;-58
2022/05/01 06:02:05;;;;;;;14.95;11.63;;;;;;;29.51;22.07;100939.70;1703241;82;21098;-63
2022/05/01 06:04:34;;;;;;;16.42;12.30;;;;;;;29.38;22.18;100945.28;1702594;82;21750;-56
2022/05/01 06:07:01;;;;;;;15.23;11.68;;;;;;;29.64;21.73;100938.99;1702108;82;21540;-58
2022/05/01 06:09:28;;;;;;;17.80;13.00;;;;;;;29.34;22.14;100945.63;1702684;82;21559;-56
2022/05/01 06:11:55;;;;;;;16.62;12.50;;;;;;;29.32;22.26;100930.33;1702807;82;21089;-58
2022/05/01 06:14:23;;;;;;;17.07;13.75;;;;;;;29.27;22.62;100931.21;1702910;82;20904;-63
2022/05/01 06:16:50;;;;;;;16.50;14.33;;;;;;;29.31;22.50;100936.25;1702422;83;21749;-61
2022/05/01 06:19:17;;;;;;;17.62;13.83;;;;;;;29.36;22.44;100939.43;1702712;84;21580;-57
2022/05/01 06:21:44;;;;;;;19.57;14.03;;;;;;;29.27;22.33;100932.55;1703270;84;21106;-56
2022/05/01 06:24:14;;;;;;;18.97;15.17;;;;;;;29.01;22.37;100940.73;1702965;82;20967;-57
2022/05/01 06:26:42;;;;;;;19.60;15.23;;;;;;;28.75;22.94;100938.37;1691728;82;21263;-59
2022/05/01 06:29:09;;;;;;;21.40;15.57;;;;;;;28.49;23.12;100938.41;1703183;84;21149;-56
2022/05/01 06:31:40;;;;;;;20.20;14.70;;;;;;;28.42;23.31;100945.48;1703381;82;20987;-55
2022/05/01 06:34:10;;;;;;;18.75;13.80;;;;;;;28.30;23.30;100943.72;1704063;82;21071;-54
2022/05/01 06:36:37;;;;;;;16.15;12.47;;;;;;;28.24;23.43;100946.18;1702490;82;21075;-56
2022/05/01 06:39:06;;;;;;;21.90;14.57;;;;;;;28.33;23.22;100947.94;1702678;82;21321;-55
2022/05/01 06:41:33;;;;;;;15.60;13.47;;;;;;;28.46;23.55;100947.84;1702840;82;21227;-56
2022/05/01 06:44:00;;;;;;;18.40;14.37;;;;;;;28.67;23.42;100945.70;1703544;84;21116;-55
2022/05/01 06:46:28;;;;;;;18.13;14.03;;;;;;;28.91;23.32;100950.25;1702817;82;21701;-59
2022/05/01 06:48:54;;;;;;;16.73;12.77;;;;;;;28.84;23.33;100952.73;1702300;82;21309;-61
2022/05/01 06:51:22;;;;;;;15.80;11.93;;;;;;;28.96;22.62;100944.80;1702883;82;21584;-55
2022/05/01 06:53:49;;;;;;;9.07;6.57;;;;;;;28.86;23.41;100941.70;1702704;82;21266;-55
2022/05/01 06:56:17;;;;;;;8.20;4.30;;;;;;;29.15;22.75;100941.61;1702835;82;20999;-58
2022/05/01 06:58:44;;;;;;;6.07;4.30;;;;;;;29.28;22.18;100942.23;1702167;82;21513;-57
2022/05/01 07:01:11;;;;;;;7.47;4.70;;;;;;;29.36;21.15;100939.95;1701570;83;21455;-55
2022/05/01 07:03:42;;;;;;;8.40;5.50;;;;;;;29.41;20.90;100942.58;1691856;84;21199;-55
2022/05/01 07:06:09;;;;;;;11.10;6.90;;;;;;;29.20;21.00;100952.27;1696252;82;21284;-55
2022/05/01 07:08:36;;;;;;;8.90;6.07;;;;;;;29.27;20.88;100952.70;1681566;83;20975;-54
2022/05/01 07:11:03;;;;;;;11.83;8.17;;;;;;;29.22;20.71;100945.27;1680181;85;21067;-61
2022/05/01 07:13:32;;;;;;;15.67;9.03;;;;;;;29.21;20.76;100950.38;1681246;85;21604;-54
2022/05/01 07:16:00;;;;;;;18.07;11.73;;;;;;;28.85;21.18;100952.98;1681145;83;21571;-57
2022/05/01 07:18:27;;;;;;;14.57;11.17;;;;;;;28.73;21.45;100951.27;1681476;83;21166;-55
2022/05/01 07:20:55;;;;;;;13.87;11.53;;;;;;;28.60;21.36;100955.46;1681564;85;21038;-57
2022/05/01 07:23:23;;;;;;;19.07;14.57;;;;;;;28.69;21.35;100951.59;1680822;83;20939;-55
2022/05/01 07:25:50;;;;;;;22.60;17.03;;;;;;;28.83;21.22;100945.78;1681787;83;21379;-55
2022/05/01 07:28:17;;;;;;;20.60;13.53;;;;;;;29.04;21.26;100941.50;1681472;85;21035;-56
2022/05/01 07:30:45;;;;;;;19.17;12.00;;;;;;;29.01;21.47;100945.55;1681484;83;21173;-55
2022/05/01 07:33:13;;;;;;;18.00;11.63;;;;;;;28.86;21.51;100947.06;1680847;83;20888;-57
2022/05/01 07:35:41;;;;;;;17.40;10.67;;;;;;;28.89;21.38;100948.39;1670461;83;21489;-55
2022/05/01 07:38:08;;;;;;;20.33;13.23;;;;;;;28.64;21.43;100944.95;1681653;83;21124;-54
2022/05/01 07:40:36;;;;;;;23.50;14.97;;;;;;;29.14;21.21;100942.70;1681909;85;21074;-55
2022/05/01 07:43:03;;;;;;;21.53;14.83;;;;;;;28.88;21.14;100936.06;1681527;83;21884;-59
2022/05/01 07:45:31;;;;;;;17.53;13.10;;;;;;;28.60;21.11;100934.52;1681124;85;20955;-56
2022/05/01 07:47:59;;;;;;;16.10;11.63;;;;;;;28.42;20.89;100947.37;1681833;85;21197;-55
2022/05/01 07:50:27;;;;;;;14.70;11.10;;;;;;;28.33;20.83;100930.51;1681794;83;21077;-56
2022/05/01 07:52:54;;;;;;;14.17;10.77;;;;;;;28.33;20.48;100938.55;1681741;85;21243;-63
2022/05/01 07:55:21;;;;;;;15.57;10.40;;;;;;;28.38;20.67;100932.94;1680897;83;22253;-56
2022/05/01 07:57:52;;;;;;;16.27;10.20;;;;;;;28.49;20.72;100934.38;1681202;85;21058;-55
2022/05/01 08:00:19;;;;;;;15.27;9.37;;;;;;;28.57;20.82;100935.11;1681242;83;21073;-55
2022/05/01 08:05:31;;;;;;;15.23;11.40;;;;;;;28.97;20.26;100923.58;1681647;83;21617;-55
2022/05/01 08:07:59;;;;;;;14.30;11.30;;;;;;;28.76;19.83;100923.87;1701547;83;21509;-57
2022/05/01 08:10:26;;;;;;;17.83;13.50;;;;;;;28.47;20.27;100929.87;1702249;82;21083;-55
2022/05/01 08:12:57;;;;;;;16.57;13.30;;;;;;;28.81;20.12;100930.50;1702049;82;21079;-63
2022/05/01 08:15:24;;;;;;;18.57;11.87;;;;;;;28.60;20.16;100938.02;1702086;82;21118;-56
2022/05/01 08:17:51;;;;;;;13.53;10.87;;;;;;;28.41;20.64;100927.77;1701778;82;21476;-56
2022/05/01 08:23:07;;;;;;;11.27;9.17;;;;;;;28.80;20.25;100924.88;1701847;82;21093;-56
2022/05/01 08:25:34;;;;;;;15.40;10.23;;;;;;;29.10;19.88;100910.81;1701696;82;21039;-58
2022/05/01 08:28:02;;;;;;;9.70;7.30;;;;;;;29.54;19.44;100910.91;1702419;82;21015;-55
2022/05/01 08:30:29;;;;;;;9.07;6.60;;;;;;;29.72;18.92;100907.41;1701093;82;21110;-62
2022/05/01 08:32:57;;;;;;;8.93;6.10;;;;;;;29.71;18.74;100905.03;1701429;82;21237;-62
2022/05/01 08:35:24;;;;;;;7.93;5.30;;;;;;;29.59;18.84;100904.16;1701796;82;20980;-57
2022/05/01 08:37:51;;;;;;;7.00;5.10;;;;;;;29.75;18.41;100901.45;1702221;82;20960;-57
2022/05/01 08:40:19;;;;;;;7.23;6.17;;;;;;;29.86;18.42;100899.94;1702035;82;21063;-56
2022/05/01 08:42:47;;;;;;;6.60;4.70;;;;;;;29.71;18.05;100879.51;1701959;84;21565;-57
2022/05/01 08:45:15;;;;;;;8.50;4.43;;;;;;;29.70;17.81;100882.75;1701538;82;21510;-62
2022/05/01 08:48:03;;;;;;;7.17;3.70;;;;;;;29.57;18.04;100875.41;1691784;82;21912;-56
2022/05/01 08:50:33;;;;;;;7.40;3.70;;;;;;;29.56;17.43;100868.45;1702140;82;20991;-60
2022/05/01 08:53:02;;;;;;;4.33;3.30;;;;;;;29.47;17.81;100883.63;1701101;84;22016;-55
2022/05/01 08:55:32;;;;;;;4.90;2.97;;;;;;;29.26;17.62;100883.19;1684367;83;21475;-56
2022/05/01 08:58:00;;;;;;;5.62;2.72;;;;;;;29.17;18.12;100871.50;1702933;84;21305;-56
2022/05/01 09:00:27;;;;;;;6.13;2.80;;;;;;;29.17;18.26;100876.34;1702805;83;20971;-60
2022/05/01 09:02:55;;;;;;;4.30;2.70;;;;;;;29.34;18.19;100870.42;1701834;82;21548;-61
2022/05/01 09:05:22;;;;;;;5.37;2.37;;;;;;;29.44;18.34;100872.16;1702782;82;21424;-56
2022/05/01 09:07:49;;;;;;;4.33;2.70;;;;;;;29.36;18.04;100872.81;1687246;82;21118;-55
2022/05/01 09:10:16;;;;;;;5.20;1.67;;;;;;;29.29;18.03;100867.84;1681021;85;21264;-55
2022/05/01 09:12:50;;;;;;;4.40;2.00;;;;;;;29.00;17.78;100868.01;1680637;85;20999;-58
2022/05/01 09:15:32;;;;;;;3.50;1.50;;;;;;;28.53;17.94;100871.06;1681078;85;22082;-56
2022/05/01 09:18:04;;;;;;;3.83;1.87;;;;;;;28.28;17.70;100874.82;1681281;83;21021;-56
2022/05/01 09:20:32;;;;;;;3.63;1.83;;;;;;;28.33;18.31;100861.34;1680625;83;21734;-56
2022/05/01 09:23:00;;;;;;;3.27;1.80;;;;;;;29.39;17.80;100854.22;1681192;85;22135;-55
2022/05/01 09:25:28;;;;;;;3.03;1.20;;;;;;;30.46;16.78;100861.66;1680986;84;21093;-56
2022/05/01 09:27:57;;;;;;;2.63;1.57;;;;;;;30.80;15.80;100856.90;1681037;83;21587;-55
2022/05/01 09:30:34;;;;;;;2.97;1.50;;;;;;;30.44;15.39;100857.67;1680536;85;20920;-56
2022/05/01 09:33:02;;;;;;;2.17;1.13;;;;;;;29.88;15.61;100861.45;1681170;85;21134;-56
2022/05/01 09:35:35;;;;;;;4.03;1.53;;;;;;;29.56;16.28;100859.05;1680668;85;21281;-56
2022/05/01 09:38:21;;;;;;;3.43;1.70;;;;;;;29.54;16.55;100854.50;1680385;83;21603;-57
2022/05/01 09:41:00;;;;;;;3.47;1.30;;;;;;;29.67;16.47;100863.73;1681282;83;21427;-57
2022/05/01 09:43:45;;;;;;;3.57;1.60;;;;;;;29.60;16.29;100857.94;1680935;85;21572;-55
2022/05/01 09:46:22;;;;;;;3.70;1.77;;;;;;;29.61;16.38;100858.98;1679986;85;21965;-60
2022/05/01 09:49:05;;;;;;;3.80;1.90;;;;;;;29.24;16.71;100861.98;1671515;85;21913;-55
2022/05/01 09:51:42;;;;;;;3.30;1.73;;;;;;;28.57;17.05;100864.03;1680017;83;21586;-58
2022/05/01 09:54:11;;;;;;;4.00;1.80;;;;;;;28.23;17.31;100870.87;1680607;83;21094;-55
2022/05/01 09:56:46;;;;;;;4.27;1.83;;;;;;;28.06;17.62;100869.97;1655702;85;21063;-62
2022/05/01 09:59:14;;;;;;;2.53;1.30;;;;;;;27.54;17.48;100875.53;1681111;83;21022;-58
2022/05/01 10:02:06;;;;;;;3.40;1.70;;;;;;;27.01;18.01;100874.03;1669981;83;21328;-61
2022/05/01 10:04:35;;;;;;;4.35;2.00;;;;;;;26.66;18.54;100881.99;1680696;83;21079;-57
2022/05/01 10:07:03;;;;;;;3.33;1.53;;;;;;;26.36;18.85;100878.09;1686617;83;21461;-57
2022/05/01 10:09:35;;;;;;;2.77;1.50;;;;;;;26.13;19.22;100882.97;1701402;82;20905;-63
2022/05/01 10:12:07;;;;;;;4.47;1.30;;;;;;;26.08;19.14;100877.64;1702492;82;21009;-58
2022/05/01 10:14:34;;;;;;;3.87;1.70;;;;;;;26.32;19.35;100873.02;1702151;82;21223;-56
2022/05/01 10:17:02;;;;;;;4.83;1.70;;;;;;;26.39;19.10;100870.86;1702225;82;21106;-58
2022/05/01 10:19:29;;;;;;;4.77;1.57;;;;;;;26.40;19.03;100870.61;1702037;82;21042;-57
2022/05/01 10:21:59;;;;;;;3.27;1.73;;;;;;;26.58;19.03;100867.06;1701676;82;21018;-57
2022/05/01 10:24:26;;;;;;;6.50;2.10;;;;;;;26.72;18.83;100865.40;1701889;82;21070;-57
2022/05/01 10:27:10;;;;;;;3.10;1.40;;;;;;;26.88;18.61;100864.22;1701298;82;21269;-57
2022/05/01 10:33:37;;;;;;;3.25;1.60;;;;;;;27.64;18.45;100854.83;1701841;82;21167;-55
2022/05/01 10:36:25;;;;;;;2.57;1.47;;;;;;;28.13;18.20;100853.01;1702075;82;21506;-60
2022/05/01 10:39:00;;;;;;;5.93;1.70;;;;;;;28.66;17.73;100851.56;1702420;82;21114;-55
2022/05/01 10:41:29;;;;;;;3.83;1.60;;;;;;;28.92;17.45;100849.31;1701789;82;21548;-61
2022/05/01 10:43:58;;;;;;;4.60;1.40;;;;;;;29.12;17.47;100842.84;1702047;82;21061;-55
2022/05/01 10:46:31;;;;;;;4.27;1.43;;;;;;;29.11;17.52;100840.47;1701464;82;21031;-57
2022/05/01 10:49:03;;;;;;;7.37;1.53;;;;;;;29.00;17.42;100839.28;1702306;82;21912;-55
2022/05/01 10:51:38;;;;;;;3.50;1.43;;;;;;;28.79;17.13;100837.95;1684430;82;21120;-57
2022/05/01 10:54:32;;;;;;;3.10;1.70;;;;;;;28.67;17.43;100847.78;1701785;82;22299;-58
2022/05/01 10:57:08;;;;;;;3.10;1.67;;;;;;;28.52;17.51;100835.38;1702309;82;21059;-56
2022/05/01 10:59:39;;;;;;;5.60;2.00;;;;;;;28.34;17.25;100830.78;1701624;82;21475;-62
2022/05/01 11:02:09;;;;;;;3.90;2.17;;;;;;;28.20;17.11;100833.36;1702270;84;21090;-55
2022/05/01 11:04:42;;;;;;;3.37;1.60;;;;;;;28.18;17.30;100831.49;1701331;82;20987;-57
2022/05/01 11:07:10;;;;;;;4.97;2.33;;;;;;;27.88;17.86;100840.68;1699173;82;21628;-58
2022/05/01 11:09:41;;;;;;;5.12;1.70;;;;;;;27.71;17.93;100838.42;1655954;85;21004;-57
2022/05/01 11:12:09;;;;;;;3.73;2.07;;;;;;;27.46;18.10;100834.64;1681009;85;21352;-56
2022/05/01 11:14:55;;;;;;;3.73;1.50;;;;;;;27.35;17.56;100833.41;1681065;83;21086;-55
2022/05/01 11:17:44;;;;;;;3.23;1.40;;;;;;;27.27;17.54;100825.17;1657569;85;21130;-61
2022/05/01 11:20:22;;;;;;;3.50;1.67;;;;;;;27.29;17.59;100818.47;1681156;85;21396;-57
2022/05/01 11:22:50;;;;;;;3.73;1.63;;;;;;;27.31;17.56;100816.29;1680419;85;21548;-64
2022/05/01 11:25:33;;;;;;;4.10;1.83;;;;;;;27.00;18.60;100818.94;1680701;83;21501;-56
2022/05/01 11:28:00;;;;;;;6.10;2.03;;;;;;;27.04;18.88;100818.63;1680022;84;21062;-64
2022/05/01 11:30:33;;;;;;;4.93;2.00;;;;;;;27.03;18.69;100815.70;1680075;83;21430;-62
2022/05/01 11:33:11;;;;;;;3.33;1.60;;;;;;;26.86;18.74;100821.45;1681141;83;22364;-56
2022/05/01 11:36:00;;;;;;;3.57;1.93;;;;;;;26.75;19.02;100818.05;1680863;85;21031;-57
2022/05/01 11:38:34;;;;;;;3.83;1.70;;;;;;;26.58;19.16;100815.72;1681059;83;21259;-55
2022/05/01 11:41:02;;;;;;;3.07;1.73;;;;;;;26.40;19.16;100813.13;1655093;85;21350;-56
2022/05/01 11:43:30;;;;;;;6.23;2.43;;;;;;;26.32;19.15;100816.36;1681701;83;21446;-57
2022/05/01 11:45:58;;;;;;;6.73;2.50;;;;;;;26.36;19.47;100816.61;1680730;83;21266;-65
2022/05/01 11:48:25;;;;;;;3.80;2.20;;;;;;;26.35;19.03;100817.15;1681010;85;21198;-58